sensor_id;sensor_type;location;lat;lon;timestamp;temperature;humidity
35377;DHT22;21480;51.642;4.834;2022-10-22T00:02:20;13.00;99.90
35377;DHT22;21480;51.642;4.834;2022-10-22T00:04:47;13.00;99.90
35377;DHT22;21480;51.642;4.834;2022-10-22T00:07:13;13.00;99.90
35377;DHT22;21480;51.642;4.834;2022-10-22T00:09:40;13.00;99.90
35377;DHT22;21480;51.642;4.834;2022-10-22T00:12:05;13.00;99.90
35377;DHT22;21480;51.642;4.834;2022-10-22T00:14:31;13.00;99.90
35377;DHT22;21480;51.642;4.834;2022-10-22T00:16:57;12.90;99.90
35377;DHT22;21480;51.642;4.834;2022-10-22T00:19:26;12.90;99.90
35377;DHT22;21480;51.642;4.834;2022-10-22T00:21:51;13.00;99.90
35377;DHT22;21480;51.642;4.834;2022-10-22T00:24:17;13.00;99.90
35377;DHT22;21480;51.642;4.834;2022-10-22T00:26:43;12.90;99.90
35377;DHT22;21480;51.642;4.834;2022-10-22T00:29:09;12.90;99.90
35377;DHT22;21480;51.642;4.834;2022-10-22T00:31:35;12.90;99.90
35377;DHT22;21480;51.642;4.834;2022-10-22T00:34:01;12.90;99.90
35377;DHT22;21480;51.642;4.834;2022-10-22T00:36:27;12.80;99.90
35377;DHT22;21480;51.642;4.834;2022-10-22T00:38:53;12.80;99.90
35377;DHT22;21480;51.642;4.834;2022-10-22T00:41:18;12.80;99.90
35377;DHT22;21480;51.642;4.834;2022-10-22T00:43:59;12.70;99.90
35377;DHT22;21480;51.642;4.834;2022-10-22T00:46:25;12.70;99.90
35377;DHT22;21480;51.642;4.834;2022-10-22T00:48:52;12.60;99.90
35377;DHT22;21480;51.642;4.834;2022-10-22T00:51:21;12.60;99.90
35377;DHT22;21480;51.642;4.834;2022-10-22T00:53:51;12.60;99.90
35377;DHT22;21480;51.642;4.834;2022-10-22T00:56:19;12.60;99.90
35377;DHT22;21480;51.642;4.834;2022-10-22T00:58:48;12.60;99.90
35377;DHT22;21480;51.642;4.834;2022-10-22T01:01:21;12.60;99.90
35377;DHT22;21480;51.642;4.834;2022-10-22T01:03:49;12.60;99.90
35377;DHT22;21480;51.642;4.834;2022-10-22T01:06:24;12.60;99.90
35377;DHT22;21480;51.642;4.834;2022-10-22T01:15:44;12.60;99.90
35377;DHT22;21480;51.642;4.834;2022-10-22T01:20:29;12.70;99.90
35377;DHT22;21480;51.642;4.834;2022-10-22T01:26:09;12.90;99.90
35377;DHT22;21480;51.642;4.834;2022-10-22T01:29:01;12.90;99.90
35377;DHT22;21480;51.642;4.834;2022-10-22T01:31:38;12.90;99.90
35377;DHT22;21480;51.642;4.834;2022-10-22T01:34:06;12.90;99.90
35377;DHT22;21480;51.642;4.834;2022-10-22T01:36:34;12.90;99.90
35377;DHT22;21480;51.642;4.834;2022-10-22T01:39:02;12.90;99.90
35377;DHT22;21480;51.642;4.834;2022-10-22T01:41:30;12.90;99.90
35377;DHT22;21480;51.642;4.834;2022-10-22T01:43:56;12.90;99.90
35377;DHT22;21480;51.642;4.834;2022-10-22T01:46:24;12.90;99.90
35377;DHT22;21480;51.642;4.834;2022-10-22T01:54:41;12.90;99.90
35377;DHT22;21480;51.642;4.834;2022-10-22T02:08:11;13.00;99.90
35377;DHT22;21480;51.642;4.834;2022-10-22T02:10:40;13.00;99.90
35377;DHT22;21480;51.642;4.834;2022-10-22T02:13:15;13.00;99.90
35377;DHT22;21480;51.642;4.834;2022-10-22T02:15:43;13.00;99.90
35377;DHT22;21480;51.642;4.834;2022-10-22T02:18:10;13.00;99.90
35377;DHT22;21480;51.642;4.834;2022-10-22T02:20:38;13.00;99.90
35377;DHT22;21480;51.642;4.834;2022-10-22T02:23:05;13.00;99.90
35377;DHT22;21480;51.642;4.834;2022-10-22T02:25:34;13.10;99.90
35377;DHT22;21480;51.642;4.834;2022-10-22T02:28:18;13.10;99.90
35377;DHT22;21480;51.642;4.834;2022-10-22T02:30:50;13.20;99.90
35377;DHT22;21480;51.642;4.834;2022-10-22T02:33:23;13.20;99.90
35377;DHT22;21480;51.642;4.834;2022-10-22T02:35:51;13.20;99.90
35377;DHT22;21480;51.642;4.834;2022-10-22T02:38:18;13.20;99.90
35377;DHT22;21480;51.642;4.834;2022-10-22T02:40:45;13.20;99.90
35377;DHT22;21480;51.642;4.834;2022-10-22T02:43:11;13.20;99.90
35377;DHT22;21480;51.642;4.834;2022-10-22T02:45:37;13.20;99.90
35377;DHT22;21480;51.642;4.834;2022-10-22T02:48:03;13.20;99.90
35377;DHT22;21480;51.642;4.834;2022-10-22T02:50:28;13.20;99.90
35377;DHT22;21480;51.642;4.834;2022-10-22T02:52:54;13.30;99.90
35377;DHT22;21480;51.642;4.834;2022-10-22T02:55:23;13.20;99.90
35377;DHT22;21480;51.642;4.834;2022-10-22T02:57:49;13.20;99.90
35377;DHT22;21480;51.642;4.834;2022-10-22T03:00:15;13.10;99.90
35377;DHT22;21480;51.642;4.834;2022-10-22T03:02:40;13.20;99.90
35377;DHT22;21480;51.642;4.834;2022-10-22T03:05:06;13.20;99.90
35377;DHT22;21480;51.642;4.834;2022-10-22T03:07:32;13.20;99.90
35377;DHT22;21480;51.642;4.834;2022-10-22T03:09:58;13.10;99.90
35377;DHT22;21480;51.642;4.834;2022-10-22T03:12:24;13.10;99.90
35377;DHT22;21480;51.642;4.834;2022-10-22T03:14:50;13.10;99.90
35377;DHT22;21480;51.642;4.834;2022-10-22T03:17:17;13.00;99.90
35377;DHT22;21480;51.642;4.834;2022-10-22T03:19:43;13.00;99.90
35377;DHT22;21480;51.642;4.834;2022-10-22T03:22:17;13.00;99.90
35377;DHT22;21480;51.642;4.834;2022-10-22T03:24:46;13.00;99.90
35377;DHT22;21480;51.642;4.834;2022-10-22T03:27:15;13.00;99.90
35377;DHT22;21480;51.642;4.834;2022-10-22T03:29:41;13.00;99.90
35377;DHT22;21480;51.642;4.834;2022-10-22T03:32:07;13.00;99.90
35377;DHT22;21480;51.642;4.834;2022-10-22T03:34:33;12.90;99.90
35377;DHT22;21480;51.642;4.834;2022-10-22T03:37:02;13.00;99.90
35377;DHT22;21480;51.642;4.834;2022-10-22T03:39:30;13.00;99.90
35377;DHT22;21480;51.642;4.834;2022-10-22T03:41:56;12.90;99.90
35377;DHT22;21480;51.642;4.834;2022-10-22T03:44:22;12.90;99.90
35377;DHT22;21480;51.642;4.834;2022-10-22T03:46:49;12.90;99.90
35377;DHT22;21480;51.642;4.834;2022-10-22T03:49:14;12.80;99.90
35377;DHT22;21480;51.642;4.834;2022-10-22T03:51:40;12.80;99.90
35377;DHT22;21480;51.642;4.834;2022-10-22T03:54:06;12.80;99.90
35377;DHT22;21480;51.642;4.834;2022-10-22T03:56:32;12.80;99.90
35377;DHT22;21480;51.642;4.834;2022-10-22T03:58:58;12.80;99.90
35377;DHT22;21480;51.642;4.834;2022-10-22T04:01:26;12.80;99.90
35377;DHT22;21480;51.642;4.834;2022-10-22T04:03:52;12.80;99.90
35377;DHT22;21480;51.642;4.834;2022-10-22T04:06:18;12.80;99.90
35377;DHT22;21480;51.642;4.834;2022-10-22T04:08:44;12.90;99.90
35377;DHT22;21480;51.642;4.834;2022-10-22T04:11:11;12.90;99.90
35377;DHT22;21480;51.642;4.834;2022-10-22T04:13:37;12.90;99.90
35377;DHT22;21480;51.642;4.834;2022-10-22T04:16:15;12.90;99.90
35377;DHT22;21480;51.642;4.834;2022-10-22T04:18:42;12.90;99.90
35377;DHT22;21480;51.642;4.834;2022-10-22T04:21:10;12.80;99.90
35377;DHT22;21480;51.642;4.834;2022-10-22T04:23:36;12.80;99.90
35377;DHT22;21480;51.642;4.834;2022-10-22T04:26:06;12.80;99.90
35377;DHT22;21480;51.642;4.834;2022-10-22T04:28:33;12.80;99.90
35377;DHT22;21480;51.642;4.834;2022-10-22T04:30:59;12.80;99.90
35377;DHT22;21480;51.642;4.834;2022-10-22T04:33:25;12.80;99.90
35377;DHT22;21480;51.642;4.834;2022-10-22T04:35:50;12.70;99.90
35377;DHT22;21480;51.642;4.834;2022-10-22T04:38:16;12.70;99.90
35377;DHT22;21480;51.642;4.834;2022-10-22T04:40:42;12.70;99.90
35377;DHT22;21480;51.642;4.834;2022-10-22T04:43:08;12.80;99.90
35377;DHT22;21480;51.642;4.834;2022-10-22T04:45:34;12.80;99.90
35377;DHT22;21480;51.642;4.834;2022-10-22T04:48:00;12.80;99.90
35377;DHT22;21480;51.642;4.834;2022-10-22T04:50:26;12.90;99.90
35377;DHT22;21480;51.642;4.834;2022-10-22T04:52:52;12.90;99.90
35377;DHT22;21480;51.642;4.834;2022-10-22T04:55:18;12.90;99.90
35377;DHT22;21480;51.642;4.834;2022-10-22T04:57:43;13.00;99.90
35377;DHT22;21480;51.642;4.834;2022-10-22T05:00:09;13.00;99.90
35377;DHT22;21480;51.642;4.834;2022-10-22T05:02:35;13.00;99.90
35377;DHT22;21480;51.642;4.834;2022-10-22T05:05:01;13.00;99.90
35377;DHT22;21480;51.642;4.834;2022-10-22T05:07:27;13.00;99.90
35377;DHT22;21480;51.642;4.834;2022-10-22T05:09:53;13.00;99.90
35377;DHT22;21480;51.642;4.834;2022-10-22T05:12:18;13.00;99.90
35377;DHT22;21480;51.642;4.834;2022-10-22T05:14:44;13.00;99.90
35377;DHT22;21480;51.642;4.834;2022-10-22T05:17:10;13.00;99.90
35377;DHT22;21480;51.642;4.834;2022-10-22T05:19:36;13.10;99.90
35377;DHT22;21480;51.642;4.834;2022-10-22T05:22:03;13.10;99.90
35377;DHT22;21480;51.642;4.834;2022-10-22T05:24:30;13.10;99.90
35377;DHT22;21480;51.642;4.834;2022-10-22T05:26:57;13.20;99.90
35377;DHT22;21480;51.642;4.834;2022-10-22T05:29:24;13.20;99.90
35377;DHT22;21480;51.642;4.834;2022-10-22T05:31:50;13.20;99.90
35377;DHT22;21480;51.642;4.834;2022-10-22T05:34:16;13.20;99.90
35377;DHT22;21480;51.642;4.834;2022-10-22T05:36:42;13.10;99.90
35377;DHT22;21480;51.642;4.834;2022-10-22T05:39:08;13.10;99.90
35377;DHT22;21480;51.642;4.834;2022-10-22T05:41:35;13.10;99.90
35377;DHT22;21480;51.642;4.834;2022-10-22T05:44:01;13.20;99.90
35377;DHT22;21480;51.642;4.834;2022-10-22T05:46:29;13.10;99.90
35377;DHT22;21480;51.642;4.834;2022-10-22T05:49:02;13.10;99.90
35377;DHT22;21480;51.642;4.834;2022-10-22T05:51:30;13.00;99.90
35377;DHT22;21480;51.642;4.834;2022-10-22T05:53:59;12.90;99.90
35377;DHT22;21480;51.642;4.834;2022-10-22T05:56:26;13.00;99.90
35377;DHT22;21480;51.642;4.834;2022-10-22T05:58:52;13.00;99.90
35377;DHT22;21480;51.642;4.834;2022-10-22T06:01:20;13.00;99.90
35377;DHT22;21480;51.642;4.834;2022-10-22T06:03:47;13.00;99.90
35377;DHT22;21480;51.642;4.834;2022-10-22T06:08:41;12.90;99.90
35377;DHT22;21480;51.642;4.834;2022-10-22T06:11:07;12.80;99.90
35377;DHT22;21480;51.642;4.834;2022-10-22T06:13:33;12.90;99.90
35377;DHT22;21480;51.642;4.834;2022-10-22T06:15:58;12.80;99.90
35377;DHT22;21480;51.642;4.834;2022-10-22T06:18:24;12.80;99.90
35377;DHT22;21480;51.642;4.834;2022-10-22T06:20:50;12.80;99.90
35377;DHT22;21480;51.642;4.834;2022-10-22T06:23:15;12.80;99.90
35377;DHT22;21480;51.642;4.834;2022-10-22T06:25:41;12.90;99.90
35377;DHT22;21480;51.642;4.834;2022-10-22T06:28:08;12.90;99.90
35377;DHT22;21480;51.642;4.834;2022-10-22T06:30:35;13.00;99.90
35377;DHT22;21480;51.642;4.834;2022-10-22T06:33:01;13.00;99.90
35377;DHT22;21480;51.642;4.834;2022-10-22T06:35:27;13.20;99.90
35377;DHT22;21480;51.642;4.834;2022-10-22T06:37:52;13.30;99.90
35377;DHT22;21480;51.642;4.834;2022-10-22T06:40:18;13.40;99.90
35377;DHT22;21480;51.642;4.834;2022-10-22T06:42:44;13.50;99.90
35377;DHT22;21480;51.642;4.834;2022-10-22T06:45:10;13.60;99.90
35377;DHT22;21480;51.642;4.834;2022-10-22T06:47:35;13.60;99.90
35377;DHT22;21480;51.642;4.834;2022-10-22T06:50:01;13.70;99.90
35377;DHT22;21480;51.642;4.834;2022-10-22T06:52:27;13.80;99.90
35377;DHT22;21480;51.642;4.834;2022-10-22T06:54:53;13.80;99.90
35377;DHT22;21480;51.642;4.834;2022-10-22T06:57:21;13.90;99.90
35377;DHT22;21480;51.642;4.834;2022-10-22T06:59:47;13.90;99.90
35377;DHT22;21480;51.642;4.834;2022-10-22T07:02:13;14.00;99.90
35377;DHT22;21480;51.642;4.834;2022-10-22T07:04:38;14.00;99.90
35377;DHT22;21480;51.642;4.834;2022-10-22T07:07:04;14.00;99.90
35377;DHT22;21480;51.642;4.834;2022-10-22T07:09:30;14.00;99.90
35377;DHT22;21480;51.642;4.834;2022-10-22T07:11:56;14.00;99.90
35377;DHT22;21480;51.642;4.834;2022-10-22T07:14:21;14.00;99.90
35377;DHT22;21480;51.642;4.834;2022-10-22T07:16:47;13.90;99.90
35377;DHT22;21480;51.642;4.834;2022-10-22T07:19:13;14.00;99.90
35377;DHT22;21480;51.642;4.834;2022-10-22T07:21:39;13.90;99.90
35377;DHT22;21480;51.642;4.834;2022-10-22T07:24:05;13.80;99.90
35377;DHT22;21480;51.642;4.834;2022-10-22T07:26:31;13.70;99.90
35377;DHT22;21480;51.642;4.834;2022-10-22T07:29:00;13.70;99.90
35377;DHT22;21480;51.642;4.834;2022-10-22T07:31:27;13.70;99.90
35377;DHT22;21480;51.642;4.834;2022-10-22T07:33:53;13.80;99.90
35377;DHT22;21480;51.642;4.834;2022-10-22T07:36:18;13.80;99.90
35377;DHT22;21480;51.642;4.834;2022-10-22T07:38:46;13.80;99.90
35377;DHT22;21480;51.642;4.834;2022-10-22T07:41:14;13.90;99.90
35377;DHT22;21480;51.642;4.834;2022-10-22T07:43:40;14.00;99.90
35377;DHT22;21480;51.642;4.834;2022-10-22T07:46:06;14.10;99.90
35377;DHT22;21480;51.642;4.834;2022-10-22T07:48:34;14.30;99.90
35377;DHT22;21480;51.642;4.834;2022-10-22T07:51:00;14.40;99.90
35377;DHT22;21480;51.642;4.834;2022-10-22T07:53:26;14.40;99.90
35377;DHT22;21480;51.642;4.834;2022-10-22T07:55:52;14.50;99.90
35377;DHT22;21480;51.642;4.834;2022-10-22T07:58:18;14.50;99.90
35377;DHT22;21480;51.642;4.834;2022-10-22T08:00:45;14.60;99.90
35377;DHT22;21480;51.642;4.834;2022-10-22T08:03:11;14.80;99.90
35377;DHT22;21480;51.642;4.834;2022-10-22T08:05:37;15.10;99.90
35377;DHT22;21480;51.642;4.834;2022-10-22T08:08:04;15.10;99.90
35377;DHT22;21480;51.642;4.834;2022-10-22T08:10:31;15.10;99.90
35377;DHT22;21480;51.642;4.834;2022-10-22T08:12:57;15.20;99.90
35377;DHT22;21480;51.642;4.834;2022-10-22T08:15:23;15.20;99.90
35377;DHT22;21480;51.642;4.834;2022-10-22T08:17:50;15.50;99.90
35377;DHT22;21480;51.642;4.834;2022-10-22T08:20:16;15.60;99.90
35377;DHT22;21480;51.642;4.834;2022-10-22T08:22:42;15.70;99.90
35377;DHT22;21480;51.642;4.834;2022-10-22T08:25:08;15.80;99.90
35377;DHT22;21480;51.642;4.834;2022-10-22T08:27:34;15.80;99.90
35377;DHT22;21480;51.642;4.834;2022-10-22T08:30:00;15.90;99.90
35377;DHT22;21480;51.642;4.834;2022-10-22T08:32:26;16.00;99.90
35377;DHT22;21480;51.642;4.834;2022-10-22T08:34:51;16.00;99.90
35377;DHT22;21480;51.642;4.834;2022-10-22T08:37:17;16.00;99.90
35377;DHT22;21480;51.642;4.834;2022-10-22T08:39:43;16.00;99.90
35377;DHT22;21480;51.642;4.834;2022-10-22T08:45:29;16.10;99.90
35377;DHT22;21480;51.642;4.834;2022-10-22T08:50:42;16.10;99.90
35377;DHT22;21480;51.642;4.834;2022-10-22T08:53:17;16.10;99.90
35377;DHT22;21480;51.642;4.834;2022-10-22T08:55:44;16.20;99.90
35377;DHT22;21480;51.642;4.834;2022-10-22T08:58:16;16.20;99.90
35377;DHT22;21480;51.642;4.834;2022-10-22T09:01:06;16.30;99.90
35377;DHT22;21480;51.642;4.834;2022-10-22T09:03:49;16.40;99.90
35377;DHT22;21480;51.642;4.834;2022-10-22T09:06:35;16.40;99.90
35377;DHT22;21480;51.642;4.834;2022-10-22T09:09:15;16.50;99.90
35377;DHT22;21480;51.642;4.834;2022-10-22T09:11:44;16.60;99.90
35377;DHT22;21480;51.642;4.834;2022-10-22T09:14:15;16.60;99.90
35377;DHT22;21480;51.642;4.834;2022-10-22T09:24:51;16.90;99.90
35377;DHT22;21480;51.642;4.834;2022-10-22T09:27:20;16.90;99.90
35377;DHT22;21480;51.642;4.834;2022-10-22T09:29:50;16.90;99.90
35377;DHT22;21480;51.642;4.834;2022-10-22T09:32:16;16.90;99.90
35377;DHT22;21480;51.642;4.834;2022-10-22T09:34:46;16.90;99.90
35377;DHT22;21480;51.642;4.834;2022-10-22T09:37:16;17.00;99.90
35377;DHT22;21480;51.642;4.834;2022-10-22T09:39:51;17.10;99.90
35377;DHT22;21480;51.642;4.834;2022-10-22T09:42:18;17.20;99.90
35377;DHT22;21480;51.642;4.834;2022-10-22T09:44:52;17.30;99.90
35377;DHT22;21480;51.642;4.834;2022-10-22T09:47:48;17.50;99.90
35377;DHT22;21480;51.642;4.834;2022-10-22T09:50:18;17.70;99.90
35377;DHT22;21480;51.642;4.834;2022-10-22T09:52:48;17.80;99.90
35377;DHT22;21480;51.642;4.834;2022-10-22T09:55:18;17.90;99.90
35377;DHT22;21480;51.642;4.834;2022-10-22T09:57:52;18.00;99.90
35377;DHT22;21480;51.642;4.834;2022-10-22T10:00:19;18.10;99.90
35377;DHT22;21480;51.642;4.834;2022-10-22T10:02:45;18.20;99.90
35377;DHT22;21480;51.642;4.834;2022-10-22T10:05:19;18.20;99.90
35377;DHT22;21480;51.642;4.834;2022-10-22T10:07:45;18.30;99.90
35377;DHT22;21480;51.642;4.834;2022-10-22T10:10:48;18.40;99.90
35377;DHT22;21480;51.642;4.834;2022-10-22T10:21:39;18.80;99.90
35377;DHT22;21480;51.642;4.834;2022-10-22T10:27:07;18.40;99.90
35377;DHT22;21480;51.642;4.834;2022-10-22T10:32:49;18.30;99.90
35377;DHT22;21480;51.642;4.834;2022-10-22T10:35:36;19.00;99.90
35377;DHT22;21480;51.642;4.834;2022-10-22T10:49:09;19.50;99.90
35377;DHT22;21480;51.642;4.834;2022-10-22T11:00:14;19.00;99.90
35377;DHT22;21480;51.642;4.834;2022-10-22T11:05:53;18.80;99.90
35377;DHT22;21480;51.642;4.834;2022-10-22T11:10:56;18.70;99.90
35377;DHT22;21480;51.642;4.834;2022-10-22T11:13:38;18.90;99.90
35377;DHT22;21480;51.642;4.834;2022-10-22T11:16:32;19.20;99.90
35377;DHT22;21480;51.642;4.834;2022-10-22T11:21:50;19.70;99.90
35377;DHT22;21480;51.642;4.834;2022-10-22T11:24:36;20.10;99.90
35377;DHT22;21480;51.642;4.834;2022-10-22T11:27:30;19.80;99.90
35377;DHT22;21480;51.642;4.834;2022-10-22T11:30:12;19.70;99.90
35377;DHT22;21480;51.642;4.834;2022-10-22T11:32:40;19.80;99.90
35377;DHT22;21480;51.642;4.834;2022-10-22T11:35:12;19.80;99.90
35377;DHT22;21480;51.642;4.834;2022-10-22T11:37:39;19.70;99.90
35377;DHT22;21480;51.642;4.834;2022-10-22T11:40:14;19.80;99.90
35377;DHT22;21480;51.642;4.834;2022-10-22T11:45:40;19.60;99.90
35377;DHT22;21480;51.642;4.834;2022-10-22T11:58:32;20.10;99.90
35377;DHT22;21480;51.642;4.834;2022-10-22T12:16:36;19.00;99.90
35377;DHT22;21480;51.642;4.834;2022-10-22T12:21:34;19.10;99.90
35377;DHT22;21480;51.642;4.834;2022-10-22T12:24:02;19.40;99.90
35377;DHT22;21480;51.642;4.834;2022-10-22T12:26:31;19.50;99.90
35377;DHT22;21480;51.642;4.834;2022-10-22T12:29:00;21.00;99.90
35377;DHT22;21480;51.642;4.834;2022-10-22T12:31:27;21.80;99.90
35377;DHT22;21480;51.642;4.834;2022-10-22T12:33:57;22.20;99.90
35377;DHT22;21480;51.642;4.834;2022-10-22T12:36:28;22.00;99.90
35377;DHT22;21480;51.642;4.834;2022-10-22T12:38:59;20.80;99.90
35377;DHT22;21480;51.642;4.834;2022-10-22T12:41:36;20.00;99.90
35377;DHT22;21480;51.642;4.834;2022-10-22T12:44:04;20.00;99.90
35377;DHT22;21480;51.642;4.834;2022-10-22T12:46:34;20.40;99.90
35377;DHT22;21480;51.642;4.834;2022-10-22T12:49:18;20.40;99.90
35377;DHT22;21480;51.642;4.834;2022-10-22T12:51:47;20.00;99.90
35377;DHT22;21480;51.642;4.834;2022-10-22T12:56:47;19.20;99.90
35377;DHT22;21480;51.642;4.834;2022-10-22T13:01:50;20.80;99.90
35377;DHT22;21480;51.642;4.834;2022-10-22T13:06:47;23.30;99.90
35377;DHT22;21480;51.642;4.834;2022-10-22T13:09:15;24.20;99.90
35377;DHT22;21480;51.642;4.834;2022-10-22T13:14:30;25.00;99.90
35377;DHT22;21480;51.642;4.834;2022-10-22T13:17:18;25.30;99.90
35377;DHT22;21480;51.642;4.834;2022-10-22T13:20:02;25.60;99.90
35377;DHT22;21480;51.642;4.834;2022-10-22T13:22:39;26.10;99.90
35377;DHT22;21480;51.642;4.834;2022-10-22T13:27:51;25.40;99.90
35377;DHT22;21480;51.642;4.834;2022-10-22T13:32:53;25.20;99.90
35377;DHT22;21480;51.642;4.834;2022-10-22T13:35:23;25.00;99.90
35377;DHT22;21480;51.642;4.834;2022-10-22T13:37:50;25.00;99.90
35377;DHT22;21480;51.642;4.834;2022-10-22T13:40:16;25.00;99.90
35377;DHT22;21480;51.642;4.834;2022-10-22T13:42:42;24.50;99.90
35377;DHT22;21480;51.642;4.834;2022-10-22T13:45:07;24.10;99.90
35377;DHT22;21480;51.642;4.834;2022-10-22T13:47:33;24.30;99.90
35377;DHT22;21480;51.642;4.834;2022-10-22T13:50:02;24.00;99.90
35377;DHT22;21480;51.642;4.834;2022-10-22T13:57:44;22.90;99.90
35377;DHT22;21480;51.642;4.834;2022-10-22T14:00:12;22.50;99.90
35377;DHT22;21480;51.642;4.834;2022-10-22T14:02:39;22.20;99.90
35377;DHT22;21480;51.642;4.834;2022-10-22T14:05:05;21.40;99.90
35377;DHT22;21480;51.642;4.834;2022-10-22T14:07:34;21.20;99.90
35377;DHT22;21480;51.642;4.834;2022-10-22T14:10:00;21.40;99.90
35377;DHT22;21480;51.642;4.834;2022-10-22T14:12:29;21.30;99.90
35377;DHT22;21480;51.642;4.834;2022-10-22T14:14:56;21.60;99.90
35377;DHT22;21480;51.642;4.834;2022-10-22T14:17:21;22.20;99.90
35377;DHT22;21480;51.642;4.834;2022-10-22T14:19:48;22.40;99.90
35377;DHT22;21480;51.642;4.834;2022-10-22T14:22:17;22.90;99.90
35377;DHT22;21480;51.642;4.834;2022-10-22T14:24:44;23.10;99.90
35377;DHT22;21480;51.642;4.834;2022-10-22T14:27:12;23.50;99.90
35377;DHT22;21480;51.642;4.834;2022-10-22T14:29:39;22.60;99.90
35377;DHT22;21480;51.642;4.834;2022-10-22T14:32:16;21.70;99.90
35377;DHT22;21480;51.642;4.834;2022-10-22T14:34:45;21.80;99.90
35377;DHT22;21480;51.642;4.834;2022-10-22T14:37:16;22.40;99.90
35377;DHT22;21480;51.642;4.834;2022-10-22T14:39:43;23.30;99.90
35377;DHT22;21480;51.642;4.834;2022-10-22T14:42:11;23.70;99.90
35377;DHT22;21480;51.642;4.834;2022-10-22T14:44:39;23.40;99.90
35377;DHT22;21480;51.642;4.834;2022-10-22T14:47:05;23.40;99.90
35377;DHT22;21480;51.642;4.834;2022-10-22T14:49:31;22.60;99.90
35377;DHT22;21480;51.642;4.834;2022-10-22T14:51:56;21.90;99.90
35377;DHT22;21480;51.642;4.834;2022-10-22T14:54:22;21.10;99.90
35377;DHT22;21480;51.642;4.834;2022-10-22T14:56:48;20.20;99.90
35377;DHT22;21480;51.642;4.834;2022-10-22T14:59:13;20.00;99.90
35377;DHT22;21480;51.642;4.834;2022-10-22T15:01:39;19.80;99.90
35377;DHT22;21480;51.642;4.834;2022-10-22T15:04:07;19.60;99.90
35377;DHT22;21480;51.642;4.834;2022-10-22T15:06:34;19.50;99.90
35377;DHT22;21480;51.642;4.834;2022-10-22T15:09:00;19.40;99.90
35377;DHT22;21480;51.642;4.834;2022-10-22T15:11:25;19.20;99.90
35377;DHT22;21480;51.642;4.834;2022-10-22T15:13:51;19.10;99.90
35377;DHT22;21480;51.642;4.834;2022-10-22T15:16:17;19.00;99.90
35377;DHT22;21480;51.642;4.834;2022-10-22T15:18:43;18.90;99.90
35377;DHT22;21480;51.642;4.834;2022-10-22T15:21:14;18.70;99.90
35377;DHT22;21480;51.642;4.834;2022-10-22T15:23:40;18.60;99.90
35377;DHT22;21480;51.642;4.834;2022-10-22T15:26:07;18.40;99.90
35377;DHT22;21480;51.642;4.834;2022-10-22T15:28:33;18.30;99.90
35377;DHT22;21480;51.642;4.834;2022-10-22T15:30:59;18.20;99.90
35377;DHT22;21480;51.642;4.834;2022-10-22T15:33:26;18.00;99.90
35377;DHT22;21480;51.642;4.834;2022-10-22T15:35:53;17.90;99.90
35377;DHT22;21480;51.642;4.834;2022-10-22T15:38:19;17.70;99.90
35377;DHT22;21480;51.642;4.834;2022-10-22T15:40:45;17.60;99.90
35377;DHT22;21480;51.642;4.834;2022-10-22T15:43:12;17.40;99.90
35377;DHT22;21480;51.642;4.834;2022-10-22T15:45:38;17.30;99.90
35377;DHT22;21480;51.642;4.834;2022-10-22T15:48:04;17.20;99.90
35377;DHT22;21480;51.642;4.834;2022-10-22T15:50:30;16.90;99.90
35377;DHT22;21480;51.642;4.834;2022-10-22T15:52:56;16.70;99.90
35377;DHT22;21480;51.642;4.834;2022-10-22T15:55:22;16.60;99.90
35377;DHT22;21480;51.642;4.834;2022-10-22T15:57:48;16.40;99.90
35377;DHT22;21480;51.642;4.834;2022-10-22T16:00:20;16.30;99.90
35377;DHT22;21480;51.642;4.834;2022-10-22T16:02:45;16.10;99.90
35377;DHT22;21480;51.642;4.834;2022-10-22T16:05:11;15.90;99.90
35377;DHT22;21480;51.642;4.834;2022-10-22T16:07:37;15.70;99.90
35377;DHT22;21480;51.642;4.834;2022-10-22T16:10:03;15.60;99.90
35377;DHT22;21480;51.642;4.834;2022-10-22T16:12:29;15.40;99.90
35377;DHT22;21480;51.642;4.834;2022-10-22T16:14:54;15.20;99.90
35377;DHT22;21480;51.642;4.834;2022-10-22T16:17:20;15.00;99.90
35377;DHT22;21480;51.642;4.834;2022-10-22T16:19:47;14.90;99.90
35377;DHT22;21480;51.642;4.834;2022-10-22T16:22:12;14.70;99.90
35377;DHT22;21480;51.642;4.834;2022-10-22T16:24:40;14.60;99.90
35377;DHT22;21480;51.642;4.834;2022-10-22T16:27:07;14.50;99.90
35377;DHT22;21480;51.642;4.834;2022-10-22T16:29:33;14.30;99.90
35377;DHT22;21480;51.642;4.834;2022-10-22T16:32:01;14.20;99.90
35377;DHT22;21480;51.642;4.834;2022-10-22T16:34:26;14.10;99.90
35377;DHT22;21480;51.642;4.834;2022-10-22T16:36:52;14.00;99.90
35377;DHT22;21480;51.642;4.834;2022-10-22T16:39:20;13.80;99.90
35377;DHT22;21480;51.642;4.834;2022-10-22T16:41:46;13.70;99.90
35377;DHT22;21480;51.642;4.834;2022-10-22T16:44:12;13.60;99.90
35377;DHT22;21480;51.642;4.834;2022-10-22T16:46:37;13.50;99.90
35377;DHT22;21480;51.642;4.834;2022-10-22T16:49:04;13.40;99.90
35377;DHT22;21480;51.642;4.834;2022-10-22T16:51:30;13.30;99.90
35377;DHT22;21480;51.642;4.834;2022-10-22T16:53:56;13.20;99.90
35377;DHT22;21480;51.642;4.834;2022-10-22T16:56:23;13.10;99.90
35377;DHT22;21480;51.642;4.834;2022-10-22T16:58:53;13.10;99.90
35377;DHT22;21480;51.642;4.834;2022-10-22T17:01:20;13.00;99.90
35377;DHT22;21480;51.642;4.834;2022-10-22T17:03:46;13.00;99.90
35377;DHT22;21480;51.642;4.834;2022-10-22T17:06:13;12.90;99.90
35377;DHT22;21480;51.642;4.834;2022-10-22T17:08:39;12.90;99.90
35377;DHT22;21480;51.642;4.834;2022-10-22T17:11:10;12.80;99.90
35377;DHT22;21480;51.642;4.834;2022-10-22T17:13:37;12.70;99.90
35377;DHT22;21480;51.642;4.834;2022-10-22T17:16:06;12.60;99.90
35377;DHT22;21480;51.642;4.834;2022-10-22T17:18:34;12.60;99.90
35377;DHT22;21480;51.642;4.834;2022-10-22T17:21:00;12.50;99.90
35377;DHT22;21480;51.642;4.834;2022-10-22T17:23:25;12.40;99.90
35377;DHT22;21480;51.642;4.834;2022-10-22T17:26:01;12.30;99.90
35377;DHT22;21480;51.642;4.834;2022-10-22T17:28:27;12.30;99.90
35377;DHT22;21480;51.642;4.834;2022-10-22T17:33:35;12.30;99.90
35377;DHT22;21480;51.642;4.834;2022-10-22T17:36:04;12.20;99.90
35377;DHT22;21480;51.642;4.834;2022-10-22T17:38:33;12.10;99.90
35377;DHT22;21480;51.642;4.834;2022-10-22T17:40:59;12.10;99.90
35377;DHT22;21480;51.642;4.834;2022-10-22T17:43:24;12.00;99.90
35377;DHT22;21480;51.642;4.834;2022-10-22T17:45:50;11.90;99.90
35377;DHT22;21480;51.642;4.834;2022-10-22T17:48:16;11.90;99.90
35377;DHT22;21480;51.642;4.834;2022-10-22T17:50:42;11.90;99.90
35377;DHT22;21480;51.642;4.834;2022-10-22T17:53:08;11.90;99.90
35377;DHT22;21480;51.642;4.834;2022-10-22T17:55:34;11.90;99.90
35377;DHT22;21480;51.642;4.834;2022-10-22T17:58:01;11.80;99.90
35377;DHT22;21480;51.642;4.834;2022-10-22T18:00:27;11.80;99.90